Wells, Minnesota
Current Conditions -  °F | °C
As of 4:21 AM on Friday 21 Nov 2014 (Local Time) from KAEL Reporting Station
NA  
Wind Chill:   Ceiling: NA
Heat Index:   Visibility: NA
Dew Point:   Wind: 3mph
Humidity: 92%   Direction: 190°S
Pressure: 30.23"   Gusts: NA
Location:  43.75°N, 93.73°W
Report Text: KAEL 211021Z AUTO 19003KT M13/M14 A3023 RMK AO2
Loading
Personal Weather Stations






























Interactive Weather Map New forecast layout! Learn more

10-Day Weather Forecast

Advertisements
Track Severe Weather on mobile